Time;durP1;ratioP1;P1;durP2;ratioP2;P2;SDS_P1;SDS_P2;PMS_P1;PMS_P2;Temp;Humidity;BMP_temperature;BMP_pressure;BME280_temperature;BME280_humidity;BME280_pressure;Samples;Min_cycle;Max_cycle;Signal;HPM_P1;HPM_P2
2022/03/17 00:01:35;;;;;;;18.90;9.82;;;;;;;;;;6243438;28;20045;-74
2022/03/17 00:04:41;;;;;;;17.70;10.13;;;;;;;;;;6222113;28;20176;-73
2022/03/17 00:07:44;;;;;;;17.05;10.75;;;;;;;;;;6221539;28;20297;-73
2022/03/17 00:10:47;;;;;;;17.95;10.32;;;;;;;;;;6221555;28;20056;-74
2022/03/17 00:13:50;;;;;;;16.88;9.93;;;;;;;;;;6222140;28;20056;-74
2022/03/17 00:16:53;;;;;;;16.70;9.95;;;;;;;;;;6221488;28;20046;-74
2022/03/17 00:19:58;;;;;;;16.55;10.23;;;;;;;;;;6203440;28;20034;-73
2022/03/17 00:23:01;;;;;;;17.90;10.45;;;;;;;;;;6221843;28;20053;-75
2022/03/17 00:26:06;;;;;;;53.35;26.35;;;;;;;;;;6220121;28;20050;-73
2022/03/17 00:29:09;;;;;;;19.88;11.45;;;;;;;;;;6220713;28;20041;-73
2022/03/17 00:32:12;;;;;;;18.08;10.20;;;;;;;;;;6220973;28;20053;-73
2022/03/17 00:38:37;;;;;;;20.92;11.95;;;;;;;;;;6218118;28;20655;-73
2022/03/17 00:41:40;;;;;;;23.70;12.77;;;;;;;;;;6214765;28;20046;-73
2022/03/17 00:44:44;;;;;;;23.45;13.25;;;;;;;;;;6220358;28;20052;-72
2022/03/17 00:47:46;;;;;;;19.65;12.32;;;;;;;;;;6220055;28;20080;-72
2022/03/17 00:50:53;;;;;;;17.75;11.20;;;;;;;;;;6218742;28;20050;-73
2022/03/17 00:53:56;;;;;;;23.42;12.55;;;;;;;;;;6217646;28;20045;-72
2022/03/17 00:56:59;;;;;;;19.50;11.85;;;;;;;;;;6216991;28;20056;-75
2022/03/17 01:00:02;;;;;;;17.65;11.32;;;;;;;;;;6217952;28;20049;-73
2022/03/17 01:03:06;;;;;;;22.70;13.18;;;;;;;;;;6216876;28;20046;-73
2022/03/17 01:06:11;;;;;;;21.92;12.05;;;;;;;;;;6217947;28;20493;-72
2022/03/17 01:09:14;;;;;;;20.67;11.90;;;;;;;;;;6217562;28;20046;-73
2022/03/17 01:12:17;;;;;;;18.20;11.38;;;;;;;;;;6216178;28;20069;-73
2022/03/17 01:15:20;;;;;;;19.83;11.70;;;;;;;;;;6219665;28;20069;-73
2022/03/17 01:18:25;;;;;;;21.08;11.68;;;;;;;;;;6220603;28;20049;-73
2022/03/17 01:21:32;;;;;;;23.30;12.77;;;;;;;;;;6219822;28;20050;-72
2022/03/17 01:24:35;;;;;;;20.13;12.55;;;;;;;;;;6219412;28;20057;-73
2022/03/17 01:27:41;;;;;;;23.63;13.48;;;;;;;;;;6220791;28;20230;-74
2022/03/17 01:30:44;;;;;;;23.88;13.50;;;;;;;;;;6219843;28;20121;-74
2022/03/17 01:33:47;;;;;;;23.13;12.18;;;;;;;;;;6218166;28;20119;-74
2022/03/17 01:36:53;;;;;;;22.47;12.50;;;;;;;;;;6219624;28;20492;-72
2022/03/17 01:39:56;;;;;;;23.20;13.32;;;;;;;;;;6218590;28;20050;-73
2022/03/17 01:43:01;;;;;;;22.70;13.20;;;;;;;;;;6219451;28;20053;-73
2022/03/17 01:46:09;;;;;;;22.25;12.68;;;;;;;;;;6219042;28;20046;-74
2022/03/17 01:49:14;;;;;;;20.55;12.65;;;;;;;;;;6219876;28;20046;-73
2022/03/17 01:52:18;;;;;;;23.80;13.27;;;;;;;;;;6219315;28;20108;-73
2022/03/17 01:55:23;;;;;;;24.60;13.93;;;;;;;;;;6218819;28;20050;-73
2022/03/17 01:58:26;;;;;;;26.50;13.20;;;;;;;;;;6217290;28;20056;-73
2022/03/17 02:01:32;;;;;;;22.35;13.32;;;;;;;;;;6219577;28;20071;-73
2022/03/17 02:04:35;;;;;;;24.75;14.10;;;;;;;;;;6218801;28;20041;-74
2022/03/17 02:07:40;;;;;;;26.73;14.95;;;;;;;;;;6218698;28;20125;-73
2022/03/17 02:14:08;;;;;;;25.73;14.32;;;;;;;;;;6219076;28;20104;-72
2022/03/17 02:17:14;;;;;;;;;;;;;;;;;;6218980;28;20050;-73
2022/03/17 02:20:17;;;;;;;23.65;13.68;;;;;;;;;;6218503;28;19921;-74
2022/03/17 02:26:45;;;;;;;27.08;14.82;;;;;;;;;;6218372;28;20520;-74
2022/03/17 02:29:49;;;;;;;28.85;14.80;;;;;;;;;;6217878;28;20073;-72
2022/03/17 02:32:59;;;;;;;24.33;14.70;;;;;;;;;;6218793;28;20044;-72
2022/03/17 02:36:02;;;;;;;24.08;14.43;;;;;;;;;;6218710;28;20176;-72
2022/03/17 02:39:09;;;;;;;28.48;14.98;;;;;;;;;;6217947;28;20049;-73
2022/03/17 02:42:12;;;;;;;24.77;13.65;;;;;;;;;;6217782;28;20046;-73
2022/03/17 02:45:15;;;;;;;26.27;14.57;;;;;;;;;;6217629;28;20041;-73
2022/03/17 02:48:18;;;;;;;26.30;15.07;;;;;;;;;;6218471;28;20046;-73
2022/03/17 02:51:21;;;;;;;29.65;15.63;;;;;;;;;;6217504;28;20056;-73
2022/03/17 02:54:27;;;;;;;25.17;14.82;;;;;;;;;;6218921;28;20053;-73
2022/03/17 02:57:30;;;;;;;24.40;14.50;;;;;;;;;;6218186;28;20073;-72
2022/03/17 03:00:34;;;;;;;24.58;14.65;;;;;;;;;;6217367;28;20042;-74
2022/03/17 03:03:37;;;;;;;26.15;15.38;;;;;;;;;;6216307;28;20459;-73
2022/03/17 03:06:40;;;;;;;28.90;15.23;;;;;;;;;;6218024;28;20060;-72
2022/03/17 03:09:44;;;;;;;28.33;15.27;;;;;;;;;;6217688;28;20057;-73
2022/03/17 03:12:47;;;;;;;26.02;14.80;;;;;;;;;;6217351;28;20049;-73
2022/03/17 03:15:50;;;;;;;28.48;15.15;;;;;;;;;;6218110;28;20056;-73
2022/03/17 03:18:54;;;;;;;29.98;15.30;;;;;;;;;;6217758;28;20511;-74
2022/03/17 03:21:56;;;;;;;26.58;14.88;;;;;;;;;;6217071;28;20046;-73
2022/03/17 03:25:04;;;;;;;26.45;15.50;;;;;;;;;;6217725;28;20045;-73
2022/03/17 03:28:07;;;;;;;25.88;14.70;;;;;;;;;;6200273;28;20041;-71
2022/03/17 03:31:10;;;;;;;24.98;14.45;;;;;;;;;;6217735;28;20149;-72
2022/03/17 03:34:13;;;;;;;25.98;15.25;;;;;;;;;;6217240;28;20212;-74
2022/03/17 03:37:24;;;;;;;26.15;15.55;;;;;;;;;;6217551;28;20058;-73
2022/03/17 03:40:29;;;;;;;29.50;16.40;;;;;;;;;;6217923;28;20061;-72
2022/03/17 03:43:32;;;;;;;28.15;15.10;;;;;;;;;;6217369;28;20042;-73
2022/03/17 03:46:35;;;;;;;31.38;15.27;;;;;;;;;;6217368;28;20049;-73
2022/03/17 03:49:42;;;;;;;25.65;15.15;;;;;;;;;;6217565;28;20068;-73
2022/03/17 03:52:45;;;;;;;27.08;14.65;;;;;;;;;;6216199;28;20200;-72
2022/03/17 03:55:50;;;;;;;29.98;15.57;;;;;;;;;;6216597;28;20053;-72
2022/03/17 03:58:53;;;;;;;29.20;15.60;;;;;;;;;;6217632;28;20046;-72
2022/03/17 04:01:56;;;;;;;29.42;15.95;;;;;;;;;;6217033;28;20045;-73
2022/03/17 04:05:00;;;;;;;28.23;15.15;;;;;;;;;;6217223;28;20060;-72
2022/03/17 04:08:06;;;;;;;24.10;14.10;;;;;;;;;;6217261;28;20045;-72
2022/03/17 04:11:10;;;;;;;26.52;14.80;;;;;;;;;;6217362;28;20042;-72
2022/03/17 04:14:14;;;;;;;27.88;15.43;;;;;;;;;;6216752;28;20046;-72
2022/03/17 04:17:17;;;;;;;27.58;14.75;;;;;;;;;;6216364;28;20563;-72
2022/03/17 04:20:20;;;;;;;26.30;14.77;;;;;;;;;;6217298;28;20042;-72
2022/03/17 04:23:23;;;;;;;26.58;15.55;;;;;;;;;;6219619;28;20042;-72
2022/03/17 04:26:28;;;;;;;26.85;15.32;;;;;;;;;;6220603;28;20405;-72
2022/03/17 04:29:30;;;;;;;30.55;15.10;;;;;;;;;;6221847;28;20042;-72
2022/03/17 04:32:36;;;;;;;27.63;15.40;;;;;;;;;;6220000;28;20046;-73
2022/03/17 04:35:39;;;;;;;26.27;16.13;;;;;;;;;;6220597;28;20120;-71
2022/03/17 04:38:43;;;;;;;30.48;15.13;;;;;;;;;;6220766;28;20061;-72
2022/03/17 04:41:50;;;;;;;;;;;;;;;;;;6220484;28;20051;-74
2022/03/17 04:44:58;;;;;;;27.77;15.30;;;;;;;;;;6220737;28;20384;-72
2022/03/17 04:48:01;;;;;;;27.55;15.88;;;;;;;;;;6220482;28;20847;-73
2022/03/17 04:51:04;;;;;;;28.60;15.27;;;;;;;;;;6219770;28;20049;-72
2022/03/17 04:54:07;;;;;;;29.80;15.98;;;;;;;;;;6220539;28;20053;-71
2022/03/17 04:57:12;;;;;;;28.33;15.57;;;;;;;;;;6220190;28;20052;-72
2022/03/17 05:00:17;;;;;;;32.47;15.68;;;;;;;;;;6220461;28;20064;-73
2022/03/17 05:03:20;;;;;;;27.42;15.43;;;;;;;;;;6220674;28;20050;-72
2022/03/17 05:06:23;;;;;;;31.70;16.13;;;;;;;;;;6220416;28;20049;-72
2022/03/17 05:09:26;;;;;;;30.65;16.90;;;;;;;;;;6219932;28;20743;-71
2022/03/17 05:12:29;;;;;;;31.25;17.05;;;;;;;;;;6219662;28;20420;-72
2022/03/17 05:15:34;;;;;;;30.73;16.33;;;;;;;;;;6220215;28;20161;-71
2022/03/17 05:18:37;;;;;;;28.47;16.03;;;;;;;;;;6219953;28;20062;-71
2022/03/17 05:21:40;;;;;;;30.30;16.70;;;;;;;;;;6218847;28;20803;-71
2022/03/17 05:24:43;;;;;;;31.20;16.67;;;;;;;;;;6218696;28;20424;-72
2022/03/17 05:27:47;;;;;;;30.65;17.95;;;;;;;;;;6219708;28;20054;-72
2022/03/17 05:30:53;;;;;;;32.22;18.70;;;;;;;;;;6219549;28;20350;-71
2022/03/17 05:33:56;;;;;;;31.42;18.33;;;;;;;;;;6220222;28;20050;-73
2022/03/17 05:36:59;;;;;;;39.80;18.40;;;;;;;;;;6219718;28;20084;-72
2022/03/17 05:40:05;;;;;;;32.75;16.67;;;;;;;;;;6219101;28;20485;-73
2022/03/17 05:43:09;;;;;;;33.53;18.38;;;;;;;;;;6219860;28;20556;-73
2022/03/17 05:46:13;;;;;;;30.85;16.80;;;;;;;;;;6219496;28;20475;-72
2022/03/17 05:49:16;;;;;;;36.25;19.10;;;;;;;;;;6218924;28;20055;-72
2022/03/17 05:52:19;;;;;;;33.75;17.25;;;;;;;;;;6219022;28;20496;-72
2022/03/17 05:55:23;;;;;;;30.42;17.52;;;;;;;;;;6218181;28;20058;-71
2022/03/17 05:58:28;;;;;;;31.25;17.08;;;;;;;;;;6218948;28;20041;-71
2022/03/17 06:01:35;;;;;;;33.75;17.83;;;;;;;;;;6218114;28;20413;-73
2022/03/17 06:04:40;;;;;;;32.63;17.90;;;;;;;;;;6219164;28;20054;-72
2022/03/17 06:07:44;;;;;;;31.15;17.10;;;;;;;;;;6218992;28;20481;-74
2022/03/17 06:10:49;;;;;;;31.60;16.73;;;;;;;;;;6218444;28;20045;-73
2022/03/17 06:13:53;;;;;;;37.03;17.35;;;;;;;;;;6217159;28;20049;-74
2022/03/17 06:16:58;;;;;;;32.00;18.30;;;;;;;;;;6218812;28;20042;-74
2022/03/17 06:20:03;;;;;;;38.35;18.75;;;;;;;;;;6216785;28;20156;-74
2022/03/17 06:23:07;;;;;;;35.97;19.00;;;;;;;;;;6218010;28;20054;-73
2022/03/17 06:26:10;;;;;;;34.25;19.52;;;;;;;;;;6218984;28;20488;-74
2022/03/17 06:29:13;;;;;;;35.50;18.83;;;;;;;;;;6218350;28;20436;-74
2022/03/17 06:32:18;;;;;;;37.80;19.75;;;;;;;;;;6217420;28;20121;-73
2022/03/17 06:35:22;;;;;;;38.90;20.60;;;;;;;;;;6218264;28;20057;-73
2022/03/17 06:38:25;;;;;;;33.10;19.48;;;;;;;;;;6218388;28;20084;-73
2022/03/17 06:41:30;;;;;;;35.42;18.80;;;;;;;;;;6218298;28;20061;-74
2022/03/17 06:44:33;;;;;;;35.20;19.58;;;;;;;;;;6217040;28;20485;-75
2022/03/17 06:47:38;;;;;;;39.03;19.80;;;;;;;;;;6218328;28;20045;-73
2022/03/17 06:50:40;;;;;;;37.15;20.17;;;;;;;;;;6216561;28;20125;-72
2022/03/17 06:53:43;;;;;;;34.90;20.20;;;;;;;;;;6217199;28;20096;-74
2022/03/17 06:56:46;;;;;;;35.22;19.35;;;;;;;;;;6218336;28;20056;-73
2022/03/17 06:59:50;;;;;;;36.17;19.83;;;;;;;;;;6217733;28;20050;-71
2022/03/17 07:02:54;;;;;;;39.35;20.08;;;;;;;;;;6217367;28;20049;-74
2022/03/17 07:05:57;;;;;;;34.55;21.02;;;;;;;;;;6217162;28;20523;-72
2022/03/17 07:09:00;;;;;;;37.00;20.35;;;;;;;;;;6218739;28;20072;-74
2022/03/17 07:12:06;;;;;;;37.08;21.67;;;;;;;;;;6217753;28;20050;-73
2022/03/17 07:15:09;;;;;;;37.05;20.05;;;;;;;;;;6215572;28;20496;-72
2022/03/17 07:18:16;;;;;;;37.17;20.95;;;;;;;;;;6216956;28;20056;-72
2022/03/17 07:21:19;;;;;;;38.72;21.20;;;;;;;;;;6216353;28;20049;-74
2022/03/17 07:24:22;;;;;;;38.35;20.20;;;;;;;;;;6217033;28;20064;-72
2022/03/17 07:27:25;;;;;;;34.30;20.13;;;;;;;;;;6217217;28;20056;-71
2022/03/17 07:30:28;;;;;;;35.60;20.20;;;;;;;;;;6216312;28;20053;-72
2022/03/17 07:33:32;;;;;;;34.63;20.27;;;;;;;;;;6215721;28;20353;-72
2022/03/17 07:36:35;;;;;;;39.00;22.30;;;;;;;;;;6216369;28;20116;-73
2022/03/17 07:39:38;;;;;;;40.67;22.17;;;;;;;;;;6216549;28;20149;-72
2022/03/17 07:42:45;;;;;;;37.65;20.83;;;;;;;;;;6217178;28;20096;-72
2022/03/17 07:46:06;;;;;;;35.38;20.10;;;;;;;;;;6216766;28;20049;-73
2022/03/17 07:49:10;;;;;;;40.08;23.17;;;;;;;;;;6216662;28;20053;-72
2022/03/17 07:52:14;;;;;;;39.60;21.45;;;;;;;;;;6216223;28;20052;-74
2022/03/17 07:55:18;;;;;;;37.03;21.33;;;;;;;;;;6216899;28;20092;-74
2022/03/17 07:58:21;;;;;;;39.20;21.27;;;;;;;;;;6219300;28;20387;-71
2022/03/17 08:01:25;;;;;;;38.67;22.35;;;;;;;;;;6222101;28;20420;-72
2022/03/17 08:04:31;;;;;;;49.42;22.70;;;;;;;;;;6221567;28;20099;-75
2022/03/17 08:07:34;;;;;;;40.78;21.70;;;;;;;;;;6221328;28;20056;-73
2022/03/17 08:10:37;;;;;;;39.90;22.98;;;;;;;;;;6222029;28;20046;-74
2022/03/17 08:13:42;;;;;;;37.22;23.20;;;;;;;;;;6236907;28;20484;-74
2022/03/17 08:16:45;;;;;;;41.58;22.10;;;;;;;;;;6236796;28;20045;-75
2022/03/17 08:19:53;;;;;;;33.65;21.42;;;;;;;;;;6221473;28;20453;-75
2022/03/17 08:22:56;;;;;;;;;;;;;;;;;;6221274;28;20510;-74
2022/03/17 08:25:59;;;;;;;38.67;21.90;;;;;;;;;;6221718;28;19925;-75
2022/03/17 08:29:02;;;;;;;37.67;21.42;;;;;;;;;;6220697;28;20048;-75
2022/03/17 08:32:06;;;;;;;37.35;21.55;;;;;;;;;;6220904;28;20096;-73
2022/03/17 08:35:10;;;;;;;36.47;22.38;;;;;;;;;;6221170;28;20125;-74
2022/03/17 08:38:13;;;;;;;38.30;21.43;;;;;;;;;;6220688;28;20061;-74
2022/03/17 08:41:19;;;;;;;33.45;20.60;;;;;;;;;;6221159;28;20053;-74
2022/03/17 08:44:22;;;;;;;38.33;21.80;;;;;;;;;;6221417;28;20045;-74
2022/03/17 08:50:48;;;;;;;37.72;22.25;;;;;;;;;;6218882;28;20409;-74
2022/03/17 08:53:53;;;;;;;35.80;21.60;;;;;;;;;;6219385;28;20050;-73
2022/03/17 08:56:59;;;;;;;34.30;21.23;;;;;;;;;;6221269;28;20050;-73
2022/03/17 09:00:06;;;;;;;34.50;21.77;;;;;;;;;;6218998;28;20117;-73
2022/03/17 09:03:13;;;;;;;38.33;23.85;;;;;;;;;;6219770;28;20046;-75
2022/03/17 09:06:18;;;;;;;40.58;21.95;;;;;;;;;;6221470;28;20046;-73
2022/03/17 09:09:23;;;;;;;34.38;20.95;;;;;;;;;;6218319;28;20046;-73
2022/03/17 09:12:27;;;;;;;38.30;23.17;;;;;;;;;;6219469;28;20042;-72
2022/03/17 09:15:30;;;;;;;37.33;22.27;;;;;;;;;;6220135;28;20057;-74
2022/03/17 09:18:33;;;;;;;36.78;23.42;;;;;;;;;;6220432;28;20117;-74
2022/03/17 09:21:38;;;;;;;44.00;22.42;;;;;;;;;;6218303;28;20125;-73
2022/03/17 09:24:46;;;;;;;37.42;22.58;;;;;;;;;;6219117;28;20385;-73
2022/03/17 09:27:48;;;;;;;33.78;20.55;;;;;;;;;;6220657;28;20050;-74
2022/03/17 09:30:51;;;;;;;37.85;22.77;;;;;;;;;;6219752;28;20497;-72
2022/03/17 09:33:55;;;;;;;34.90;21.52;;;;;;;;;;6219179;28;20153;-75
2022/03/17 09:37:00;;;;;;;35.65;21.63;;;;;;;;;;6218894;28;20053;-74
2022/03/17 09:40:03;;;;;;;37.80;23.42;;;;;;;;;;6218127;28;20049;-74
2022/03/17 09:43:21;;;;;;;33.45;21.67;;;;;;;;;;6219258;28;20435;-75
2022/03/17 09:46:27;;;;;;;36.97;22.27;;;;;;;;;;6218684;28;20062;-75
2022/03/17 09:49:30;;;;;;;42.00;22.63;;;;;;;;;;6219978;28;20052;-74
2022/03/17 09:52:35;;;;;;;37.55;23.90;;;;;;;;;;6217989;28;20046;-74
2022/03/17 09:55:41;;;;;;;36.07;22.93;;;;;;;;;;6218684;28;20046;-75
2022/03/17 09:58:45;;;;;;;36.67;23.20;;;;;;;;;;6219256;28;20291;-74
2022/03/17 10:01:48;;;;;;;36.50;23.60;;;;;;;;;;6218301;28;20049;-75
2022/03/17 10:04:52;;;;;;;34.05;22.23;;;;;;;;;;6217445;28;20064;-76
2022/03/17 10:07:57;;;;;;;37.55;24.15;;;;;;;;;;6218602;28;20054;-73
2022/03/17 10:11:00;;;;;;;39.00;24.52;;;;;;;;;;6219266;28;20049;-74
2022/03/17 10:14:05;;;;;;;40.58;23.42;;;;;;;;;;6218340;28;20052;-74
2022/03/17 10:17:10;;;;;;;40.10;24.53;;;;;;;;;;6218225;28;20061;-74
2022/03/17 10:20:15;;;;;;;38.80;23.65;;;;;;;;;;6217260;28;20042;-74
2022/03/17 10:23:25;;;;;;;41.67;25.67;;;;;;;;;;6217977;28;20049;-74
2022/03/17 10:26:31;;;;;;;40.78;24.70;;;;;;;;;;6218100;28;20092;-74
2022/03/17 10:29:34;;;;;;;35.42;23.48;;;;;;;;;;6215960;28;20421;-74
2022/03/17 10:32:54;;;;;;;42.58;25.02;;;;;;;;;;6215653;28;20046;-76
2022/03/17 10:36:12;;;;;;;38.20;24.95;;;;;;;;;;6215451;28;20056;-74
2022/03/17 10:39:19;;;;;;;41.13;24.98;;;;;;;;;;6215299;28;20128;-74
2022/03/17 10:42:26;;;;;;;38.35;25.45;;;;;;;;;;6214750;28;20054;-74
2022/03/17 10:45:29;;;;;;;40.78;24.63;;;;;;;;;;6218107;28;20049;-74
2022/03/17 10:48:33;;;;;;;39.47;25.20;;;;;;;;;;6215344;28;20076;-74
2022/03/17 10:51:37;;;;;;;40.70;24.85;;;;;;;;;;6216697;28;20420;-74
2022/03/17 10:54:56;;;;;;;39.88;25.42;;;;;;;;;;6216462;28;20041;-74
2022/03/17 10:58:11;;;;;;;37.30;24.33;;;;;;;;;;6216495;28;20041;-74
2022/03/17 11:01:14;;;;;;;37.78;24.92;;;;;;;;;;6217395;28;20096;-74
2022/03/17 11:04:17;;;;;;;47.05;25.75;;;;;;;;;;6216763;28;20054;-75
2022/03/17 11:07:21;;;;;;;40.03;25.23;;;;;;;;;;6218013;28;20440;-74
2022/03/17 11:10:26;;;;;;;39.35;26.33;;;;;;;;;;6217063;28;21039;-75
2022/03/17 11:13:32;;;;;;;39.92;24.75;;;;;;;;;;6215535;28;20049;-74
2022/03/17 11:16:38;;;;;;;43.47;24.15;;;;;;;;;;6216323;28;20081;-74
2022/03/17 11:19:42;;;;;;;37.35;24.88;;;;;;;;;;6217705;28;20052;-74
2022/03/17 11:23:03;;;;;;;35.83;24.40;;;;;;;;;;6215880;28;20049;-75
2022/03/17 11:26:09;;;;;;;39.38;24.48;;;;;;;;;;6216562;28;20061;-75
2022/03/17 11:29:12;;;;;;;43.88;26.63;;;;;;;;;;6218062;28;20052;-74
2022/03/17 11:32:25;;;;;;;38.55;23.92;;;;;;;;;;6220410;28;20404;-74
2022/03/17 11:35:32;;;;;;;39.75;25.48;;;;;;;;;;6222281;28;20049;-73
2022/03/17 11:38:37;;;;;;;35.08;23.67;;;;;;;;;;6221988;28;20050;-74
2022/03/17 11:41:42;;;;;;;36.13;24.05;;;;;;;;;;6236186;28;20069;-74
2022/03/17 11:44:45;;;;;;;36.30;23.05;;;;;;;;;;6238028;28;20058;-73
2022/03/17 11:47:49;;;;;;;37.22;22.85;;;;;;;;;;6228747;28;20109;-75
2022/03/17 11:51:09;;;;;;;36.17;23.58;;;;;;;;;;6221022;28;20057;-75
2022/03/17 11:54:12;;;;;;;35.00;23.50;;;;;;;;;;6221875;28;20050;-74
2022/03/17 11:57:16;;;;;;;34.55;22.08;;;;;;;;;;6221380;28;20057;-74
2022/03/17 12:00:19;;;;;;;36.20;22.55;;;;;;;;;;6220000;28;20125;-74
2022/03/17 12:03:28;;;;;;;34.75;21.92;;;;;;;;;;6220927;28;20050;-74
2022/03/17 12:06:33;;;;;;;31.80;21.67;;;;;;;;;;6221852;28;20061;-74
2022/03/17 12:09:37;;;;;;;33.50;21.35;;;;;;;;;;6221008;28;20527;-74
2022/03/17 12:12:41;;;;;;;34.53;22.08;;;;;;;;;;6221647;28;20050;-73
2022/03/17 12:15:45;;;;;;;34.53;21.93;;;;;;;;;;6221518;28;20053;-73
2022/03/17 12:19:01;;;;;;;33.55;21.45;;;;;;;;;;6220810;28;20382;-73
2022/03/17 12:22:08;;;;;;;36.17;22.70;;;;;;;;;;6219426;28;20132;-73
2022/03/17 12:25:15;;;;;;;35.88;21.92;;;;;;;;;;6221630;28;20136;-74
2022/03/17 12:28:23;;;;;;;33.63;21.63;;;;;;;;;;6220691;28;20054;-75
2022/03/17 12:31:26;;;;;;;36.77;21.70;;;;;;;;;;6220358;28;20492;-75
2022/03/17 12:34:29;;;;;;;32.85;21.30;;;;;;;;;;6221528;28;20326;-74
2022/03/17 12:37:33;;;;;;;34.03;22.75;;;;;;;;;;6221107;28;20184;-74
2022/03/17 12:40:43;;;;;;;34.50;22.07;;;;;;;;;;6219492;28;20798;-74
2022/03/17 12:43:50;;;;;;;33.47;20.75;;;;;;;;;;6219751;28;20056;-73
2022/03/17 12:46:54;;;;;;;31.55;20.80;;;;;;;;;;6220067;28;20038;-73
2022/03/17 12:49:58;;;;;;;35.97;22.40;;;;;;;;;;6219782;28;20049;-74
2022/03/17 12:53:04;;;;;;;37.22;22.85;;;;;;;;;;6219033;28;20045;-73
2022/03/17 12:56:07;;;;;;;40.72;22.15;;;;;;;;;;6219260;28;20103;-75
2022/03/17 12:59:11;;;;;;;35.47;21.02;;;;;;;;;;6220854;28;20062;-72
2022/03/17 13:02:17;;;;;;;33.75;22.90;;;;;;;;;;6220257;28;20428;-74
2022/03/17 13:08:41;;;;;;;33.30;21.73;;;;;;;;;;6221808;28;20054;-73
2022/03/17 13:15:11;;;;;;;38.53;22.35;;;;;;;;;;6220215;28;19925;-76
2022/03/17 13:18:16;;;;;;;37.35;22.63;;;;;;;;;;6220349;28;20053;-76
2022/03/17 13:21:19;;;;;;;33.53;22.80;;;;;;;;;;6219404;28;20042;-75
2022/03/17 13:24:25;;;;;;;38.13;23.58;;;;;;;;;;6220179;28;20412;-74
2022/03/17 13:27:28;;;;;;;38.50;23.73;;;;;;;;;;6219922;28;20420;-75
2022/03/17 13:30:34;;;;;;;41.17;23.48;;;;;;;;;;6221284;28;20344;-74
2022/03/17 13:33:37;;;;;;;33.47;21.92;;;;;;;;;;6220424;28;20108;-74
2022/03/17 13:36:52;;;;;;;37.50;23.88;;;;;;;;;;6218738;28;20046;-74
2022/03/17 13:40:00;;;;;;;33.83;21.73;;;;;;;;;;6219889;28;20403;-75
2022/03/17 13:43:04;;;;;;;34.67;22.80;;;;;;;;;;6221060;28;20057;-72
2022/03/17 13:46:18;;;;;;;34.25;23.10;;;;;;;;;;6219186;28;20080;-76
2022/03/17 13:49:27;;;;;;;32.65;22.63;;;;;;;;;;6217827;28;20400;-75
2022/03/17 13:52:29;;;;;;;34.90;23.92;;;;;;;;;;6219706;28;20131;-75
2022/03/17 13:55:37;;;;;;;34.42;21.55;;;;;;;;;;6218333;28;20045;-76
2022/03/17 13:58:41;;;;;;;36.47;23.00;;;;;;;;;;6219157;28;20058;-75
2022/03/17 14:01:45;;;;;;;37.42;22.63;;;;;;;;;;6217158;28;20049;-75
2022/03/17 14:04:54;;;;;;;31.23;21.77;;;;;;;;;;6219712;28;20042;-75
2022/03/17 14:07:58;;;;;;;29.65;21.20;;;;;;;;;;6218955;28;20100;-72
2022/03/17 14:11:03;;;;;;;32.67;21.75;;;;;;;;;;6218506;28;20184;-73
2022/03/17 14:14:07;;;;;;;33.50;21.80;;;;;;;;;;6219233;28;20057;-75
2022/03/17 14:17:12;;;;;;;33.90;20.80;;;;;;;;;;6218797;28;20129;-75
2022/03/17 14:20:15;;;;;;;31.93;20.67;;;;;;;;;;6217225;28;20042;-75
2022/03/17 14:26:39;;;;;;;31.30;21.35;;;;;;;;;;6218008;28;20057;-74
2022/03/17 14:29:42;;;;;;;32.72;21.40;;;;;;;;;;6216877;28;20041;-76
2022/03/17 14:32:47;;;;;;;;;;;;;;;;;;6218363;28;20058;-77
2022/03/17 14:35:52;;;;;;;30.23;19.48;;;;;;;;;;6200578;28;19928;-74
2022/03/17 14:38:56;;;;;;;30.92;20.55;;;;;;;;;;6218055;28;20248;-74
2022/03/17 14:41:59;;;;;;;37.50;20.15;;;;;;;;;;6217844;28;20774;-76
2022/03/17 14:45:02;;;;;;;27.98;19.30;;;;;;;;;;6217917;28;20050;-76
2022/03/17 14:48:07;;;;;;;;;;;;;;;;;;6218101;28;20073;-75
2022/03/17 14:51:14;;;;;;;35.87;20.67;;;;;;;;;;6200168;28;19921;-76
2022/03/17 14:54:17;;;;;;;35.30;19.65;;;;;;;;;;6217353;28;20050;-73
2022/03/17 14:57:24;;;;;;;32.45;20.08;;;;;;;;;;6218113;28;20046;-73
2022/03/17 15:00:28;;;;;;;37.85;19.65;;;;;;;;;;6217768;28;20048;-73
2022/03/17 15:03:31;;;;;;;30.10;20.08;;;;;;;;;;6218278;28;20042;-74
2022/03/17 15:06:36;;;;;;;32.05;20.45;;;;;;;;;;6217121;28;20053;-75
2022/03/17 15:09:40;;;;;;;32.88;19.88;;;;;;;;;;6227289;28;20050;-73
2022/03/17 15:12:43;;;;;;;30.27;19.50;;;;;;;;;;6227206;28;20412;-76
2022/03/17 15:15:46;;;;;;;30.50;19.17;;;;;;;;;;6217613;28;20050;-76
2022/03/17 15:18:49;;;;;;;29.77;19.65;;;;;;;;;;6217953;28;20049;-73
2022/03/17 15:21:53;;;;;;;27.92;18.80;;;;;;;;;;6217704;28;20469;-74
2022/03/17 15:24:58;;;;;;;32.17;19.23;;;;;;;;;;6215035;28;20131;-72
2022/03/17 15:31:22;;;;;;;29.90;18.63;;;;;;;;;;6218071;28;20108;-71
2022/03/17 15:34:27;;;;;;;32.78;19.33;;;;;;;;;;6217116;28;20499;-74
2022/03/17 15:37:32;;;;;;;28.90;18.65;;;;;;;;;;6216434;28;20061;-74
2022/03/17 15:40:35;;;;;;;28.20;18.55;;;;;;;;;;6217459;28;20038;-75
2022/03/17 15:43:40;;;;;;;26.50;17.55;;;;;;;;;;6217354;28;20088;-73
2022/03/17 15:46:45;;;;;;;30.73;19.50;;;;;;;;;;6215091;28;20046;-72
2022/03/17 15:49:48;;;;;;;30.52;19.67;;;;;;;;;;6215437;28;20140;-72
2022/03/17 15:52:52;;;;;;;38.85;23.88;;;;;;;;;;6217216;28;20049;-72
2022/03/17 15:55:56;;;;;;;33.75;21.05;;;;;;;;;;6224356;28;20041;-74
2022/03/17 15:59:02;;;;;;;33.28;20.08;;;;;;;;;;6234009;28;20092;-74
2022/03/17 16:02:07;;;;;;;31.13;20.10;;;;;;;;;;6241671;28;20056;-73
2022/03/17 16:05:12;;;;;;;33.33;20.77;;;;;;;;;;6241631;28;20045;-74
2022/03/17 16:08:17;;;;;;;28.75;19.30;;;;;;;;;;6240905;28;20042;-74
2022/03/17 16:14:43;;;;;;;37.28;21.10;;;;;;;;;;6241774;28;20391;-74
2022/03/17 16:17:46;;;;;;;34.05;20.83;;;;;;;;;;6241476;28;20044;-74
2022/03/17 16:20:49;;;;;;;30.60;20.00;;;;;;;;;;6227235;28;20191;-74
2022/03/17 16:23:54;;;;;;;32.00;20.55;;;;;;;;;;6245813;28;20046;-74
2022/03/17 16:26:57;;;;;;;30.60;19.90;;;;;;;;;;6244827;28;20489;-74
2022/03/17 16:30:03;;;;;;;33.55;20.23;;;;;;;;;;6245129;28;20050;-74
2022/03/17 16:33:10;;;;;;;31.10;19.13;;;;;;;;;;6245271;28;20187;-74
2022/03/17 16:36:13;;;;;;;31.58;20.55;;;;;;;;;;6245659;28;20049;-75
2022/03/17 16:39:17;;;;;;;29.55;19.52;;;;;;;;;;6243757;28;20050;-73
2022/03/17 16:42:23;;;;;;;37.35;21.55;;;;;;;;;;6245347;28;20064;-73
2022/03/17 16:45:31;;;;;;;34.83;20.75;;;;;;;;;;6245885;28;20045;-73
2022/03/17 16:48:35;;;;;;;31.45;20.20;;;;;;;;;;6245793;28;20045;-74
2022/03/17 16:51:40;;;;;;;;;;;;;;;;;;6245509;28;20056;-73
2022/03/17 16:54:44;;;;;;;33.90;19.67;;;;;;;;;;6245511;28;19921;-73
2022/03/17 16:57:47;;;;;;;33.20;21.15;;;;;;;;;;6245628;28;20049;-74
2022/03/17 17:00:52;;;;;;;;;;;;;;;;;;6245266;28;20057;-74
2022/03/17 17:03:55;;;;;;;34.92;21.88;;;;;;;;;;6244022;28;20461;-73
2022/03/17 17:06:59;;;;;;;35.13;21.73;;;;;;;;;;6244751;28;20511;-74
2022/03/17 17:10:04;;;;;;;38.80;23.50;;;;;;;;;;6242799;28;20095;-73
2022/03/17 17:13:08;;;;;;;37.17;22.38;;;;;;;;;;6226300;28;20045;-75
2022/03/17 17:16:11;;;;;;;34.55;19.52;;;;;;;;;;6244902;28;20508;-75
2022/03/17 17:19:15;;;;;;;37.35;21.20;;;;;;;;;;6244760;28;20045;-73
2022/03/17 17:22:18;;;;;;;38.40;22.38;;;;;;;;;;6242451;28;20505;-72
2022/03/17 17:32:07;;;;;;;36.47;21.42;;;;;;;;;;6242468;28;20488;-74
2022/03/17 17:35:10;;;;;;;36.22;21.45;;;;;;;;;;6242700;28;20064;-73
2022/03/17 17:38:13;;;;;;;36.33;22.33;;;;;;;;;;6241778;28;20057;-73
2022/03/17 17:41:18;;;;;;;40.42;21.85;;;;;;;;;;6243184;28;20056;-73
2022/03/17 17:44:21;;;;;;;34.93;20.67;;;;;;;;;;6240437;28;20045;-73
2022/03/17 17:47:26;;;;;;;38.55;22.42;;;;;;;;;;6240178;28;20049;-72
2022/03/17 17:50:29;;;;;;;40.35;21.92;;;;;;;;;;6241583;28;20046;-73
2022/03/17 17:53:37;;;;;;;38.37;21.67;;;;;;;;;;6241504;28;20048;-75
2022/03/17 17:56:44;;;;;;;32.40;20.20;;;;;;;;;;6242406;28;20042;-75
2022/03/17 17:59:47;;;;;;;36.90;20.98;;;;;;;;;;6243494;28;20136;-74
2022/03/17 18:02:53;;;;;;;34.28;20.05;;;;;;;;;;6243975;28;20101;-74
2022/03/17 18:05:58;;;;;;;41.17;21.88;;;;;;;;;;6241294;28;20370;-75
2022/03/17 18:09:03;;;;;;;40.95;20.20;;;;;;;;;;6242590;28;20041;-74
2022/03/17 18:12:08;;;;;;;39.65;22.15;;;;;;;;;;6243131;28;20111;-78
2022/03/17 18:15:12;;;;;;;38.85;22.52;;;;;;;;;;6243192;28;20049;-75
2022/03/17 18:18:16;;;;;;;37.35;21.20;;;;;;;;;;6242706;28;20052;-78
2022/03/17 18:21:19;;;;;;;34.28;20.98;;;;;;;;;;6242869;28;20103;-75
2022/03/17 18:24:22;;;;;;;39.70;22.13;;;;;;;;;;6242039;28;20136;-76
2022/03/17 18:27:26;;;;;;;36.88;21.98;;;;;;;;;;6242774;28;20103;-75
2022/03/17 18:30:29;;;;;;;38.38;21.75;;;;;;;;;;6241935;28;20069;-77
2022/03/17 18:33:32;;;;;;;35.80;21.80;;;;;;;;;;6244021;28;20045;-74